createdAt,value
2023-03-06T00:00:23.094Z,85.20
2023-03-06T00:02:50.187Z,85.04
2023-03-06T00:05:16.970Z,85.30
2023-03-06T00:07:44.575Z,85.80
2023-03-06T00:10:21.914Z,85.31
2023-03-06T00:12:48.561Z,85.01
2023-03-06T00:15:15.120Z,84.66
2023-03-06T00:17:41.694Z,85.21
2023-03-06T00:20:10.945Z,85.49
2023-03-06T00:22:37.861Z,86.04
2023-03-06T00:25:06.054Z,85.69
2023-03-06T00:27:33.297Z,85.57
2023-03-06T00:30:00.945Z,86.19
2023-03-06T00:32:29.061Z,86.26
2023-03-06T00:34:55.933Z,86.14
2023-03-06T00:37:24.430Z,86.21
2023-03-06T00:39:51.079Z,86.08
2023-03-06T00:42:19.348Z,86.58
2023-03-06T00:44:46.304Z,87.10
2023-03-06T00:47:16.986Z,88.17
2023-03-06T00:49:46.692Z,86.26
2023-03-06T00:52:13.906Z,87.39
2023-03-06T00:54:41.152Z,86.09
2023-03-06T00:57:07.757Z,87.65
2023-03-06T00:59:34.690Z,87.51
2023-03-06T01:02:02.257Z,87.27
2023-03-06T01:04:28.893Z,87.39
2023-03-06T01:06:55.486Z,87.32
2023-03-06T01:09:22.009Z,87.29
2023-03-06T01:11:48.569Z,88.35
2023-03-06T01:14:15.155Z,87.96
2023-03-06T01:16:41.788Z,88.11
2023-03-06T01:19:08.491Z,87.90
2023-03-06T01:21:35.052Z,87.06
2023-03-06T01:24:01.711Z,88.11
2023-03-06T01:26:28.430Z,88.20
2023-03-06T01:28:57.311Z,88.02
2023-03-06T01:31:25.320Z,88.83
2023-03-06T01:33:52.393Z,88.77
2023-03-06T01:36:19.084Z,89.12
2023-03-06T01:38:45.868Z,88.57
2023-03-06T01:41:15.707Z,88.60
2023-03-06T01:43:45.620Z,88.72
2023-03-06T01:46:28.701Z,88.78
2023-03-06T01:49:00.542Z,88.80
2023-03-06T01:51:42.878Z,88.76
2023-03-06T01:54:17.625Z,88.63
2023-03-06T01:56:48.922Z,88.46
2023-03-06T01:59:16.899Z,89.30
2023-03-06T02:01:44.956Z,88.64
2023-03-06T02:04:12.224Z,89.05
2023-03-06T02:06:43.298Z,88.55
2023-03-06T02:09:11.732Z,88.61
2023-03-06T02:11:43.691Z,88.85
2023-03-06T02:14:14.951Z,89.05
2023-03-06T02:16:42.230Z,88.59
2023-03-06T02:19:28.994Z,88.81
2023-03-06T02:21:55.895Z,88.87
2023-03-06T02:24:45.596Z,89.11
2023-03-06T02:27:14.897Z,89.02
2023-03-06T02:29:41.465Z,89.09
2023-03-06T02:32:08.231Z,89.25
2023-03-06T02:34:49.826Z,90.03
2023-03-06T02:37:16.517Z,89.40
2023-03-06T02:39:49.793Z,88.53
2023-03-06T02:42:22.622Z,89.25
2023-03-06T02:44:51.208Z,90.30
2023-03-06T02:47:18.063Z,90.12
2023-03-06T02:49:44.702Z,90.75
2023-03-06T02:52:11.557Z,90.89
2023-03-06T02:54:38.150Z,90.40
2023-03-06T02:57:04.786Z,90.73
2023-03-06T02:59:31.382Z,90.32
2023-03-06T03:01:57.984Z,90.03
2023-03-06T03:04:24.737Z,91.74
2023-03-06T03:06:51.359Z,91.10
2023-03-06T03:09:18.017Z,91.51
2023-03-06T03:11:44.595Z,90.94
2023-03-06T03:14:11.156Z,91.22
2023-03-06T03:16:39.200Z,90.78
2023-03-06T03:19:05.917Z,90.90
2023-03-06T03:21:32.542Z,90.92
2023-03-06T03:24:03.601Z,90.38
2023-03-06T03:26:30.179Z,90.36
2023-03-06T03:28:56.794Z,91.23
2023-03-06T03:31:23.454Z,91.32
2023-03-06T03:33:50.049Z,91.40
2023-03-06T03:36:16.684Z,91.69
2023-03-06T03:38:43.196Z,91.81
2023-03-06T03:41:09.768Z,90.78
2023-03-06T03:43:36.339Z,90.66
2023-03-06T03:46:03.054Z,91.48
2023-03-06T03:48:29.688Z,91.79
2023-03-06T03:51:04.444Z,91.24
2023-03-06T03:53:31.095Z,91.25
2023-03-06T03:55:57.691Z,91.55
2023-03-06T03:58:24.328Z,91.22
2023-03-06T04:00:50.944Z,91.66
2023-03-06T04:03:17.661Z,91.82
2023-03-06T04:05:44.244Z,91.81
2023-03-06T04:08:10.851Z,91.53
2023-03-06T04:10:39.398Z,91.65
2023-03-06T04:13:09.582Z,91.12
2023-03-06T04:15:36.972Z,91.76
2023-03-06T04:18:03.670Z,92.07
2023-03-06T04:20:30.547Z,90.25
2023-03-06T04:22:57.187Z,91.47
2023-03-06T04:25:23.858Z,91.78
2023-03-06T04:27:50.491Z,91.52
2023-03-06T04:30:17.204Z,91.46
2023-03-06T04:32:43.870Z,91.55
2023-03-06T04:35:10.732Z,92.19
2023-03-06T04:37:37.328Z,92.55
2023-03-06T04:40:04.316Z,92.36
2023-03-06T04:42:31.262Z,91.77
2023-03-06T04:44:57.826Z,92.99
2023-03-06T04:47:24.491Z,91.88
2023-03-06T04:49:51.091Z,92.03
2023-03-06T04:52:17.705Z,92.18
2023-03-06T04:54:46.012Z,91.59
2023-03-06T04:57:14.128Z,91.54
2023-03-06T04:59:40.743Z,91.76
2023-03-06T05:02:07.534Z,91.75
2023-03-06T05:04:34.383Z,92.21
2023-03-06T05:07:00.974Z,91.76
2023-03-06T05:09:27.664Z,92.82
2023-03-06T05:11:54.258Z,92.04
2023-03-06T05:14:21.935Z,92.74
2023-03-06T05:16:48.554Z,92.74
2023-03-06T05:19:15.416Z,92.40
2023-03-06T05:21:42.159Z,91.74
2023-03-06T05:24:09.732Z,93.32
2023-03-06T05:26:36.326Z,92.51
2023-03-06T05:29:02.972Z,93.49
2023-03-06T05:31:29.513Z,93.59
2023-03-06T05:33:57.524Z,93.30
2023-03-06T05:36:24.707Z,93.41
2023-03-06T05:38:51.357Z,92.26
2023-03-06T05:41:18.012Z,93.13
2023-03-06T05:43:44.643Z,93.25
2023-03-06T05:46:11.924Z,93.22
2023-03-06T05:48:38.636Z,93.04
2023-03-06T05:51:05.754Z,92.85
2023-03-06T05:53:32.798Z,93.29
2023-03-06T05:56:03.907Z,93.31
2023-03-06T05:58:32.551Z,92.84
2023-03-06T06:00:59.819Z,92.73
2023-03-06T06:03:26.998Z,93.44
2023-03-06T06:05:53.576Z,93.33
2023-03-06T06:08:20.642Z,93.09
2023-03-06T06:10:47.272Z,93.26
2023-03-06T06:13:13.863Z,93.21
2023-03-06T06:15:40.474Z,92.61
2023-03-06T06:18:07.043Z,93.91
2023-03-06T06:20:33.655Z,93.03
2023-03-06T06:23:00.254Z,94.04
2023-03-06T06:25:26.841Z,93.68
2023-03-06T06:27:55.334Z,93.85
2023-03-06T06:30:22.688Z,93.27
2023-03-06T06:32:49.693Z,94.11
2023-03-06T06:35:16.405Z,94.08
2023-03-06T06:37:42.903Z,93.54
2023-03-06T06:40:10.186Z,93.36
2023-03-06T06:42:39.822Z,93.48
2023-03-06T06:45:08.338Z,93.70
2023-03-06T06:47:34.977Z,93.81
2023-03-06T06:50:01.644Z,93.81
2023-03-06T06:52:28.374Z,93.68
2023-03-06T06:54:55.132Z,93.27
2023-03-06T06:57:21.898Z,93.25
2023-03-06T06:59:48.444Z,93.94
2023-03-06T07:02:16.418Z,93.93
2023-03-06T07:05:00.297Z,93.30
2023-03-06T07:07:31.104Z,93.14
2023-03-06T07:09:57.697Z,93.36
2023-03-06T07:12:24.312Z,93.47
2023-03-06T07:14:50.900Z,91.95
2023-03-06T07:17:17.490Z,93.13
2023-03-06T07:19:44.013Z,92.60
2023-03-06T07:22:10.585Z,92.37
2023-03-06T07:24:37.105Z,92.33
2023-03-06T07:27:04.224Z,92.68
2023-03-06T07:29:32.843Z,92.43
2023-03-06T07:31:59.527Z,92.20
2023-03-06T07:34:26.143Z,92.56
2023-03-06T07:36:52.709Z,92.79
2023-03-06T07:39:19.317Z,90.66
2023-03-06T07:41:45.990Z,91.35
2023-03-06T07:44:12.617Z,90.66
2023-03-06T07:46:39.250Z,90.58
2023-03-06T07:49:05.835Z,89.31
2023-03-06T07:51:32.419Z,87.75
2023-03-06T07:53:59.083Z,87.71
2023-03-06T07:56:25.649Z,88.06
2023-03-06T07:58:52.319Z,86.91
2023-03-06T08:01:23.402Z,87.09
2023-03-06T08:03:50.505Z,86.52
2023-03-06T08:06:20.729Z,86.78
2023-03-06T08:08:49.289Z,86.19
2023-03-06T08:11:17.772Z,86.46
2023-03-06T08:13:44.419Z,85.74
2023-03-06T08:16:11.537Z,86.38
2023-03-06T08:18:39.652Z,85.43
2023-03-06T08:21:13.125Z,85.85
2023-03-06T08:23:40.397Z,85.18
2023-03-06T08:26:11.004Z,85.63
2023-03-06T08:28:37.791Z,85.09
2023-03-06T08:31:12.867Z,84.83
2023-03-06T08:33:40.168Z,83.94
2023-03-06T08:36:06.903Z,83.62
2023-03-06T08:38:33.473Z,84.50
2023-03-06T08:41:00.029Z,83.23
2023-03-06T08:43:26.737Z,83.15
2023-03-06T08:45:56.225Z,83.37
2023-03-06T08:48:23.134Z,83.16
2023-03-06T08:50:49.798Z,83.58
2023-03-06T08:53:17.588Z,82.30
2023-03-06T08:55:47.231Z,82.49
2023-03-06T08:58:13.734Z,82.06
2023-03-06T09:00:40.479Z,81.38
2023-03-06T09:03:07.101Z,81.32
2023-03-06T09:05:34.041Z,79.99
2023-03-06T09:08:00.911Z,78.95
2023-03-06T09:10:28.483Z,77.38
2023-03-06T09:12:55.467Z,74.78
2023-03-06T09:15:24.715Z,75.46
2023-03-06T09:17:52.373Z,75.28
2023-03-06T09:20:19.067Z,73.47
2023-03-06T09:22:46.057Z,73.74
2023-03-06T09:25:14.417Z,71.29
2023-03-06T09:27:41.261Z,71.64
2023-03-06T09:30:09.105Z,72.00
2023-03-06T09:32:35.731Z,73.58
2023-03-06T09:35:02.363Z,72.91
2023-03-06T09:37:29.047Z,71.99
2023-03-06T09:39:55.629Z,72.07
2023-03-06T09:42:23.635Z,70.56
2023-03-06T09:45:02.230Z,69.81
2023-03-06T09:47:53.028Z,67.81
2023-03-06T09:50:24.635Z,68.18
2023-03-06T09:53:15.257Z,69.10
2023-03-06T09:55:46.660Z,65.45
2023-03-06T09:58:21.890Z,65.96
2023-03-06T10:01:16.264Z,68.65
2023-03-06T10:04:11.457Z,65.06
2023-03-06T10:06:55.340Z,66.30
2023-03-06T10:09:41.923Z,62.91
2023-03-06T10:12:25.497Z,66.49
2023-03-06T10:15:22.366Z,66.42
2023-03-06T10:17:49.124Z,66.47
2023-03-06T10:20:29.278Z,65.06
2023-03-06T10:23:24.073Z,64.68
2023-03-06T10:26:02.344Z,65.78
2023-03-06T10:28:41.269Z,66.22
2023-03-06T10:31:20.582Z,64.26
2023-03-06T10:33:57.928Z,64.84
2023-03-06T10:36:29.642Z,65.72
2023-03-06T10:38:58.568Z,61.30
2023-03-06T10:41:31.689Z,61.10
2023-03-06T10:44:01.061Z,62.97
2023-03-06T10:46:30.780Z,64.39
2023-03-06T10:49:00.628Z,60.58
2023-03-06T10:51:29.397Z,63.42
2023-03-06T10:54:00.113Z,64.57
2023-03-06T10:56:39.285Z,64.48
2023-03-06T10:59:17.156Z,61.66
2023-03-06T11:01:47.174Z,61.58
2023-03-06T11:04:25.175Z,56.56
2023-03-06T11:07:09.019Z,59.54
2023-03-06T11:09:36.182Z,59.44
2023-03-06T11:12:22.592Z,60.95
2023-03-06T11:15:14.156Z,57.91
2023-03-06T11:17:54.778Z,57.27
2023-03-06T11:20:53.310Z,60.00
2023-03-06T11:23:37.459Z,60.77
2023-03-06T11:26:16.464Z,59.70
2023-03-06T11:28:52.017Z,59.53
2023-03-06T11:31:32.192Z,58.43
2023-03-06T11:34:14.208Z,58.60
2023-03-06T11:36:58.432Z,57.11
2023-03-06T11:39:36.901Z,58.64
2023-03-06T11:42:16.981Z,57.45
2023-03-06T11:45:00.278Z,60.99
2023-03-06T11:47:34.980Z,60.03
2023-03-06T11:50:07.464Z,60.61
2023-03-06T11:52:49.031Z,61.04
2023-03-06T11:55:28.699Z,61.60
2023-03-06T11:58:18.074Z,61.17
2023-03-06T12:00:57.495Z,58.87
2023-03-06T12:03:56.891Z,62.92
2023-03-06T12:07:20.772Z,60.30
2023-03-06T12:09:55.086Z,62.06
2023-03-06T12:12:46.479Z,60.64
2023-03-06T12:15:23.388Z,62.44
2023-03-06T12:18:08.399Z,63.91
2023-03-06T12:20:54.154Z,62.90
2023-03-06T12:23:42.328Z,62.45
2023-03-06T12:26:34.462Z,63.75
2023-03-06T12:29:38.232Z,63.10
2023-03-06T12:32:14.853Z,63.42
2023-03-06T12:34:58.727Z,62.96
2023-03-06T12:37:48.613Z,64.12
2023-03-06T12:40:45.765Z,66.57
2023-03-06T12:43:27.531Z,65.31
2023-03-06T12:46:05.258Z,64.52
2023-03-06T12:48:36.031Z,64.09
2023-03-06T12:51:06.670Z,64.40
2023-03-06T12:53:35.939Z,64.70
2023-03-06T12:56:04.127Z,65.84
2023-03-06T12:58:30.582Z,65.16
2023-03-06T13:01:37.518Z,66.21
2023-03-06T13:04:30.512Z,64.90
2023-03-06T13:07:18.978Z,67.17
2023-03-06T13:10:12.921Z,65.42
2023-03-06T13:12:58.085Z,66.58
2023-03-06T13:15:36.373Z,66.03
2023-03-06T13:18:22.834Z,65.39
2023-03-06T13:20:54.409Z,65.70
2023-03-06T13:23:32.735Z,67.03
2023-03-06T13:26:04.265Z,66.60
2023-03-06T13:28:40.325Z,66.47
2023-03-06T13:31:18.137Z,65.54
2023-03-06T13:33:58.932Z,66.02
2023-03-06T13:36:39.018Z,66.35
2023-03-06T13:39:10.878Z,66.04
2023-03-06T13:41:42.557Z,66.09
2023-03-06T13:44:24.475Z,65.25
2023-03-06T13:47:01.594Z,65.91
2023-03-06T13:49:29.840Z,66.42
2023-03-06T13:52:21.098Z,65.54
2023-03-06T13:55:13.202Z,67.06
2023-03-06T13:57:48.875Z,67.43
2023-03-06T14:00:33.608Z,67.59
2023-03-06T14:03:03.229Z,66.95
2023-03-06T14:05:50.782Z,68.31
2023-03-06T14:08:28.464Z,67.59
2023-03-06T14:11:05.723Z,68.86
2023-03-06T14:13:47.391Z,67.54
2023-03-06T14:16:22.313Z,67.81
2023-03-06T14:18:52.771Z,66.83
2023-03-06T14:21:31.912Z,67.13
2023-03-06T14:24:04.375Z,66.65
2023-03-06T14:26:41.495Z,66.56
2023-03-06T14:29:21.495Z,67.33
2023-03-06T14:31:53.933Z,67.27
2023-03-06T14:34:28.466Z,66.54
2023-03-06T14:36:59.915Z,67.48
2023-03-06T14:39:26.814Z,68.14
2023-03-06T14:42:06.257Z,68.36
2023-03-06T14:44:32.812Z,67.68
2023-03-06T14:47:17.819Z,67.97
2023-03-06T14:49:44.329Z,68.80
2023-03-06T14:52:20.427Z,68.03
2023-03-06T14:54:52.073Z,67.90
2023-03-06T14:57:23.275Z,68.82
2023-03-06T14:59:58.848Z,71.24
2023-03-06T15:02:32.735Z,69.63
2023-03-06T15:05:13.396Z,69.34
2023-03-06T15:07:42.681Z,69.95
2023-03-06T15:10:30.628Z,71.96
2023-03-06T15:13:18.560Z,72.22
2023-03-06T15:16:12.697Z,70.54
2023-03-06T15:18:59.074Z,69.57
2023-03-06T15:21:28.603Z,68.68
2023-03-06T15:23:57.211Z,69.36
2023-03-06T15:26:31.142Z,68.87
2023-03-06T15:29:24.249Z,70.35
2023-03-06T15:31:51.115Z,70.34
2023-03-06T15:34:23.710Z,69.98
2023-03-06T15:36:56.099Z,70.61
2023-03-06T15:39:35.667Z,69.89
2023-03-06T15:42:16.027Z,69.15
2023-03-06T15:44:42.730Z,68.91
2023-03-06T15:47:11.742Z,67.47
2023-03-06T15:49:39.531Z,68.12
2023-03-06T15:52:07.637Z,68.74
2023-03-06T15:54:35.058Z,65.84
2023-03-06T15:57:05.473Z,66.27
2023-03-06T15:59:43.004Z,67.60
2023-03-06T16:02:21.600Z,67.53
2023-03-06T16:04:49.291Z,67.44
2023-03-06T16:07:16.597Z,68.24
2023-03-06T16:09:44.036Z,69.55
2023-03-06T16:12:17.518Z,70.95
2023-03-06T16:14:47.389Z,72.53
2023-03-06T16:17:15.340Z,73.44
2023-03-06T16:19:43.024Z,74.98
2023-03-06T16:22:09.837Z,76.09
2023-03-06T16:24:37.126Z,76.72
2023-03-06T16:27:04.654Z,77.50
2023-03-06T16:29:31.634Z,78.23
2023-03-06T16:31:58.909Z,79.31
2023-03-06T16:34:25.473Z,80.36
2023-03-06T16:36:52.484Z,80.44
2023-03-06T16:39:22.577Z,80.51
2023-03-06T16:41:52.102Z,80.99
2023-03-06T16:44:19.714Z,82.25
2023-03-06T16:46:48.474Z,79.69
2023-03-06T16:49:23.217Z,82.07
2023-03-06T16:51:50.860Z,81.18
2023-03-06T16:54:17.492Z,81.14
2023-03-06T16:56:44.909Z,83.05
2023-03-06T16:59:12.458Z,82.14
2023-03-06T17:01:43.014Z,82.53
2023-03-06T17:04:10.045Z,83.37
2023-03-06T17:06:36.807Z,82.35
2023-03-06T17:09:04.001Z,83.34
2023-03-06T17:11:30.520Z,83.72
2023-03-06T17:13:57.100Z,84.88
2023-03-06T17:16:23.685Z,84.27
2023-03-06T17:18:50.545Z,84.61
2023-03-06T17:21:17.173Z,85.71
2023-03-06T17:23:44.681Z,84.94
2023-03-06T17:26:18.830Z,85.15
2023-03-06T17:28:46.568Z,84.44
2023-03-06T17:31:17.355Z,85.34
2023-03-06T17:33:45.089Z,84.55
2023-03-06T17:36:14.264Z,85.14
2023-03-06T17:38:42.129Z,84.42
2023-03-06T17:41:10.920Z,85.83
2023-03-06T17:43:38.531Z,84.89
2023-03-06T17:46:11.159Z,85.07
2023-03-06T17:48:39.070Z,84.93
2023-03-06T17:51:07.401Z,85.19
2023-03-06T17:53:34.369Z,84.82
2023-03-06T17:56:04.150Z,85.46
2023-03-06T17:58:30.703Z,85.41
2023-03-06T18:00:57.224Z,85.32
2023-03-06T18:03:23.813Z,84.27
2023-03-06T18:06:04.591Z,84.25
2023-03-06T18:08:32.203Z,84.12
2023-03-06T18:11:00.310Z,85.18
2023-03-06T18:13:26.926Z,85.22
2023-03-06T18:15:53.559Z,84.82
2023-03-06T18:18:20.388Z,84.73
2023-03-06T18:20:47.379Z,85.58
2023-03-06T18:23:14.062Z,85.54
2023-03-06T18:25:41.383Z,85.02
2023-03-06T18:28:07.970Z,85.37
2023-03-06T18:30:36.026Z,86.93
2023-03-06T18:33:02.645Z,85.97
2023-03-06T18:35:29.668Z,86.65
2023-03-06T18:37:56.272Z,86.98
2023-03-06T18:40:24.756Z,87.32
2023-03-06T18:42:54.676Z,86.70
2023-03-06T18:45:21.295Z,87.98
2023-03-06T18:47:47.866Z,87.48
2023-03-06T18:50:17.404Z,87.25
2023-03-06T18:52:44.693Z,86.62
2023-03-06T18:55:12.301Z,87.12
2023-03-06T18:57:39.776Z,86.82
2023-03-06T19:00:07.458Z,87.34
2023-03-06T19:02:33.982Z,87.90
2023-03-06T19:05:00.485Z,87.79
2023-03-06T19:07:27.311Z,87.51
2023-03-06T19:09:53.909Z,88.25
2023-03-06T19:12:20.478Z,88.63
2023-03-06T19:14:47.085Z,87.54
2023-03-06T19:17:13.693Z,88.48
2023-03-06T19:19:40.280Z,90.44
2023-03-06T19:22:06.832Z,89.29
2023-03-06T19:24:33.948Z,88.65
2023-03-06T19:27:00.498Z,89.75
2023-03-06T19:29:27.443Z,89.71
2023-03-06T19:31:57.046Z,88.78
2023-03-06T19:34:23.665Z,89.75
2023-03-06T19:36:50.789Z,89.31
2023-03-06T19:39:17.380Z,90.58
2023-03-06T19:41:46.406Z,90.24
2023-03-06T19:44:14.540Z,90.91
2023-03-06T19:46:41.102Z,90.19
2023-03-06T19:49:11.991Z,89.53
2023-03-06T19:51:38.652Z,89.55
2023-03-06T19:54:05.314Z,91.10
2023-03-06T19:56:33.532Z,90.80
2023-03-06T19:59:00.239Z,90.34
2023-03-06T20:01:28.205Z,91.64
2023-03-06T20:03:59.855Z,90.80
2023-03-06T20:06:33.614Z,90.92
2023-03-06T20:09:07.382Z,91.29
2023-03-06T20:11:34.628Z,91.49
2023-03-06T20:14:03.679Z,91.66
2023-03-06T20:16:31.238Z,91.59
2023-03-06T20:19:00.430Z,91.85
2023-03-06T20:21:29.623Z,92.66
2023-03-06T20:23:57.989Z,91.84
2023-03-06T20:26:27.372Z,92.92
2023-03-06T20:28:54.782Z,93.32
2023-03-06T20:31:24.373Z,92.16
2023-03-06T20:33:53.395Z,91.99
2023-03-06T20:36:27.882Z,93.26
2023-03-06T20:38:56.382Z,92.70
2023-03-06T20:41:26.395Z,93.15
2023-03-06T20:43:54.080Z,93.74
2023-03-06T20:46:23.013Z,92.79
2023-03-06T20:48:52.693Z,93.83
2023-03-06T20:51:22.155Z,94.41
2023-03-06T20:53:51.148Z,94.58
2023-03-06T20:56:20.692Z,94.00
2023-03-06T20:58:47.238Z,94.15
2023-03-06T21:01:22.400Z,94.26
2023-03-06T21:03:49.132Z,95.20
2023-03-06T21:06:16.640Z,94.07
2023-03-06T21:08:43.295Z,96.39
2023-03-06T21:11:09.865Z,96.06
2023-03-06T21:13:36.451Z,95.35
2023-03-06T21:16:11.728Z,95.69
2023-03-06T21:18:39.738Z,96.16
2023-03-06T21:21:12.244Z,95.70
2023-03-06T21:23:39.538Z,95.74
2023-03-06T21:26:06.254Z,96.80
2023-03-06T21:28:33.335Z,95.95
2023-03-06T21:31:01.606Z,96.72
2023-03-06T21:33:28.644Z,95.33
2023-03-06T21:35:55.386Z,96.52
2023-03-06T21:38:21.929Z,97.11
2023-03-06T21:40:48.504Z,95.52
2023-03-06T21:43:17.400Z,96.84
2023-03-06T21:45:45.844Z,97.73
2023-03-06T21:48:13.634Z,96.73
2023-03-06T21:50:41.170Z,96.32
2023-03-06T21:53:08.865Z,97.25
2023-03-06T21:55:40.472Z,97.06
2023-03-06T21:58:07.578Z,97.49
2023-03-06T22:00:37.342Z,97.81
2023-03-06T22:03:04.908Z,98.05
2023-03-06T22:05:34.611Z,97.12
2023-03-06T22:08:01.349Z,97.77
2023-03-06T22:10:28.465Z,98.01
2023-03-06T22:12:55.061Z,97.89
2023-03-06T22:15:21.821Z,97.68
2023-03-06T22:17:48.557Z,97.89
2023-03-06T22:20:15.404Z,97.70
2023-03-06T22:22:42.318Z,97.21
2023-03-06T22:25:11.780Z,96.73
2023-03-06T22:27:38.841Z,97.82
2023-03-06T22:30:05.841Z,97.41
2023-03-06T22:32:32.535Z,97.81
2023-03-06T22:34:59.049Z,97.38
2023-03-06T22:37:25.592Z,97.92
2023-03-06T22:39:52.181Z,98.21
2023-03-06T22:42:18.737Z,98.84
2023-03-06T22:44:45.289Z,98.51
2023-03-06T22:47:11.844Z,97.31
2023-03-06T22:49:38.444Z,97.17
2023-03-06T22:52:05.091Z,98.17
2023-03-06T22:54:31.630Z,98.11
2023-03-06T22:56:58.186Z,98.24
2023-03-06T22:59:24.691Z,98.33
2023-03-06T23:01:51.221Z,98.20
2023-03-06T23:04:17.762Z,98.89
2023-03-06T23:06:45.644Z,98.92
2023-03-06T23:09:16.024Z,98.90
2023-03-06T23:11:42.646Z,96.98
2023-03-06T23:14:12.455Z,98.69
2023-03-06T23:16:39.786Z,98.75
2023-03-06T23:19:06.869Z,98.42
2023-03-06T23:21:34.484Z,98.98
2023-03-06T23:24:01.857Z,98.54
2023-03-06T23:26:30.374Z,98.35
2023-03-06T23:28:57.777Z,99.26
2023-03-06T23:31:30.911Z,98.78
2023-03-06T23:33:59.902Z,99.63
2023-03-06T23:36:27.090Z,98.96
2023-03-06T23:38:54.014Z,98.35
2023-03-06T23:41:22.069Z,98.99
2023-03-06T23:43:50.085Z,99.00
2023-03-06T23:46:17.687Z,99.69
2023-03-06T23:48:44.383Z,98.90
2023-03-06T23:51:17.726Z,99.28
2023-03-06T23:53:46.028Z,99.92
2023-03-06T23:56:13.345Z,100.00
2023-03-06T23:58:40.658Z,100.00
